Time;durP1;ratioP1;P1;durP2;ratioP2;P2;SDS_P1;SDS_P2;PMS_P1;PMS_P2;Temp;Humidity;BMP_temperature;BMP_pressure;BME280_temperature;BME280_humidity;BME280_pressure;Samples;Min_cycle;Max_cycle;Signal;HPM_P1;HPM_P2
2022/03/09 00:01:27;;;;;;;0.20;0.20;;;;;;;;;;5004263;28;20029;-80
2022/03/09 00:03:52;;;;;;;1.23;0.88;;;;;;;;;;4978598;28;20049;-81
2022/03/09 00:06:17;;;;;;;1.50;1.27;;;;;;;;;;4993375;28;20462;-80
2022/03/09 00:08:45;;;;;;;1.60;1.50;;;;;;;;;;4982149;28;20054;-80
2022/03/09 00:11:10;;;;;;;0.40;0.40;;;;;;;;;;4982121;28;20026;-80
2022/03/09 00:13:36;;;;;;;0.13;0.13;;;;;;;;;;4986531;28;20361;-79
2022/03/09 00:16:03;;;;;;;0.43;0.43;;;;;;;;;;4989758;28;20437;-78
2022/03/09 00:18:29;;;;;;;0.50;0.50;;;;;;;;;;4984754;28;20478;-81
2022/03/09 00:20:54;;;;;;;1.92;1.38;;;;;;;;;;4976684;28;20034;-81
2022/03/09 00:23:19;;;;;;;1.00;0.77;;;;;;;;;;4982456;28;20042;-79
2022/03/09 00:25:47;;;;;;;0.15;0.15;;;;;;;;;;4989198;28;20053;-80
2022/03/09 00:28:17;;;;;;;0.38;0.38;;;;;;;;;;4988343;28;20041;-81
2022/03/09 00:30:43;;;;;;;0.30;0.30;;;;;;;;;;4989350;28;20031;-81
2022/03/09 00:33:10;;;;;;;9.85;1.17;;;;;;;;;;4988609;28;20117;-80
2022/03/09 00:35:39;;;;;;;0.80;0.75;;;;;;;;;;4982471;28;20045;-80
2022/03/09 00:38:07;;;;;;;7.75;1.00;;;;;;;;;;4991310;28;20138;-81
2022/03/09 00:40:33;;;;;;;0.80;0.80;;;;;;;;;;4987449;28;20719;-80
2022/03/09 00:43:00;;;;;;;0.30;0.30;;;;;;;;;;4985591;28;20493;-81
2022/03/09 00:45:26;;;;;;;0.10;0.10;;;;;;;;;;4982485;28;20031;-82
2022/03/09 00:47:51;;;;;;;0.55;0.55;;;;;;;;;;4986903;28;20034;-81
2022/03/09 00:50:19;;;;;;;0.47;0.47;;;;;;;;;;4988230;28;20097;-81
2022/03/09 00:52:47;;;;;;;1.08;0.47;;;;;;;;;;4989842;28;20437;-80
2022/03/09 00:55:12;;;;;;;0.55;0.50;;;;;;;;;;4987185;28;21244;-82
2022/03/09 00:57:40;;;;;;;1.23;1.13;;;;;;;;;;4990072;28;20096;-80
2022/03/09 01:00:06;;;;;;;0.55;0.55;;;;;;;;;;4991336;28;20041;-81
2022/03/09 01:02:39;;;;;;;0.50;0.50;;;;;;;;;;4981574;28;20094;-79
2022/03/09 01:05:07;;;;;;;0.17;0.17;;;;;;;;;;4984465;28;20405;-80
2022/03/09 01:07:32;;;;;;;0.75;0.22;;;;;;;;;;4986452;28;20049;-80
2022/03/09 01:09:58;;;;;;;0.20;0.20;;;;;;;;;;4991306;28;20806;-79
2022/03/09 01:12:26;;;;;;;0.15;0.15;;;;;;;;;;4985283;28;20465;-80
2022/03/09 01:14:51;;;;;;;0.80;0.52;;;;;;;;;;4980621;28;20050;-80
2022/03/09 01:17:16;;;;;;;0.75;0.40;;;;;;;;;;4991936;28;20462;-77
2022/03/09 01:19:42;;;;;;;0.60;0.60;;;;;;;;;;4980928;28;20026;-79
2022/03/09 01:22:07;;;;;;;0.85;0.85;;;;;;;;;;4981980;28;20092;-80
2022/03/09 01:24:32;;;;;;;0.17;0.17;;;;;;;;;;4983736;28;20038;-81
2022/03/09 01:26:58;;;;;;;0.20;0.20;;;;;;;;;;4994738;28;20029;-80
2022/03/09 01:29:23;;;;;;;0.47;0.47;;;;;;;;;;4986992;28;20045;-79
2022/03/09 01:31:51;;;;;;;0.00;0.00;;;;;;;;;;4987174;28;20026;-80
2022/03/09 01:34:16;;;;;;;0.63;0.32;;;;;;;;;;4985820;28;20034;-80
2022/03/09 01:36:44;;;;;;;0.10;0.10;;;;;;;;;;4982120;28;20096;-79
2022/03/09 01:39:12;;;;;;;1.38;0.30;;;;;;;;;;4987767;28;20109;-80
2022/03/09 01:41:40;;;;;;;0.20;0.20;;;;;;;;;;4981250;28;20461;-81
2022/03/09 01:44:21;;;;;;;1.10;1.00;;;;;;;;;;4990001;28;20073;-81
2022/03/09 01:46:54;;;;;;;0.10;0.10;;;;;;;;;;4985797;28;20035;-80
2022/03/09 01:49:20;;;;;;;;;;;;;;;;;;4982502;28;20050;-80
2022/03/09 01:51:49;;;;;;;2.45;0.80;;;;;;;;;;5002992;28;19917;-80
2022/03/09 01:54:15;;;;;;;0.15;0.15;;;;;;;;;;4987738;28;20030;-81
2022/03/09 01:56:43;;;;;;;0.15;0.15;;;;;;;;;;4990049;28;20034;-81
2022/03/09 01:59:11;;;;;;;0.38;0.38;;;;;;;;;;4987301;28;20026;-80
2022/03/09 02:01:36;;;;;;;0.80;0.32;;;;;;;;;;4982199;28;20038;-81
2022/03/09 02:04:03;;;;;;;0.10;0.10;;;;;;;;;;4985053;28;20026;-81
2022/03/09 02:06:35;;;;;;;0.10;0.10;;;;;;;;;;4993481;28;20049;-82
2022/03/09 02:11:49;;;;;;;0.45;0.32;;;;;;;;;;4982452;28;20370;-82
2022/03/09 02:14:51;;;;;;;0.00;0.00;;;;;;;;;;4979571;28;20019;-82
2022/03/09 02:17:18;;;;;;;0.00;0.00;;;;;;;;;;4977704;28;20043;-80
2022/03/09 02:19:46;;;;;;;0.40;0.40;;;;;;;;;;4987727;28;20022;-81
2022/03/09 02:22:20;;;;;;;0.00;0.00;;;;;;;;;;4974525;28;20113;-80
2022/03/09 02:24:49;;;;;;;0.65;0.55;;;;;;;;;;4983854;28;20026;-78
2022/03/09 02:27:15;;;;;;;0.00;0.00;;;;;;;;;;4989203;28;20034;-80
2022/03/09 02:29:41;;;;;;;0.75;0.45;;;;;;;;;;4988049;28;20037;-82
2022/03/09 02:32:11;;;;;;;0.20;0.20;;;;;;;;;;4982483;28;20094;-79
2022/03/09 02:34:36;;;;;;;0.10;0.10;;;;;;;;;;4979013;28;20501;-80
2022/03/09 02:37:04;;;;;;;0.35;0.35;;;;;;;;;;4991776;28;20121;-79
2022/03/09 02:39:29;;;;;;;0.30;0.30;;;;;;;;;;4989656;28;20023;-79
2022/03/09 02:41:57;;;;;;;0.30;0.30;;;;;;;;;;4979386;28;20510;-80
2022/03/09 02:44:23;;;;;;;0.15;0.15;;;;;;;;;;4976081;28;20027;-79
2022/03/09 02:46:51;;;;;;;0.30;0.30;;;;;;;;;;4981458;28;20031;-81
2022/03/09 02:49:17;;;;;;;0.00;0.00;;;;;;;;;;4980878;28;20034;-82
2022/03/09 02:51:47;;;;;;;0.13;0.13;;;;;;;;;;4981935;28;20034;-79
2022/03/09 02:54:12;;;;;;;0.25;0.25;;;;;;;;;;4992444;28;20438;-82
2022/03/09 02:56:40;;;;;;;0.10;0.10;;;;;;;;;;4983986;28;20117;-81
2022/03/09 02:59:05;;;;;;;0.20;0.20;;;;;;;;;;4993830;28;20030;-81
2022/03/09 03:01:31;;;;;;;0.52;0.52;;;;;;;;;;4989898;28;20026;-80
2022/03/09 03:03:56;;;;;;;0.28;0.28;;;;;;;;;;4989981;28;20023;-81
2022/03/09 03:06:22;;;;;;;1.02;1.00;;;;;;;;;;4984803;28;20030;-81
2022/03/09 03:08:50;;;;;;;0.10;0.10;;;;;;;;;;4991736;28;20106;-80
2022/03/09 03:11:15;;;;;;;0.20;0.20;;;;;;;;;;4987471;28;20038;-81
2022/03/09 03:13:41;;;;;;;0.47;0.47;;;;;;;;;;4985146;28;20038;-80
2022/03/09 03:16:08;;;;;;;1.45;0.75;;;;;;;;;;5006300;28;20026;-81
2022/03/09 03:18:33;;;;;;;0.25;0.25;;;;;;;;;;4994699;28;20041;-81
2022/03/09 03:20:59;;;;;;;1.10;1.00;;;;;;;;;;4987214;28;20026;-79
2022/03/09 03:23:26;;;;;;;0.85;0.52;;;;;;;;;;4996819;28;20033;-81
2022/03/09 03:25:55;;;;;;;0.20;0.20;;;;;;;;;;4986353;28;20045;-79
2022/03/09 03:28:21;;;;;;;0.00;0.00;;;;;;;;;;4992284;28;20045;-79
2022/03/09 03:30:47;;;;;;;0.60;0.47;;;;;;;;;;4987814;28;20033;-82
2022/03/09 03:33:14;;;;;;;0.40;0.40;;;;;;;;;;4981564;28;20075;-81
2022/03/09 03:35:39;;;;;;;1.10;1.00;;;;;;;;;;4986662;28;20026;-79
2022/03/09 03:38:08;;;;;;;0.13;0.13;;;;;;;;;;4982324;28;20045;-79
2022/03/09 03:40:33;;;;;;;3.40;2.25;;;;;;;;;;4981862;28;20366;-81
2022/03/09 03:43:01;;;;;;;0.00;0.00;;;;;;;;;;4992017;28;20115;-81
2022/03/09 03:45:26;;;;;;;0.13;0.13;;;;;;;;;;4988307;28;20519;-81
2022/03/09 03:47:52;;;;;;;1.02;0.93;;;;;;;;;;4979472;28;20039;-80
2022/03/09 03:50:18;;;;;;;0.05;0.05;;;;;;;;;;4988467;28;20030;-80
2022/03/09 03:52:43;;;;;;;0.20;0.10;;;;;;;;;;4994932;28;20030;-81
2022/03/09 03:55:09;;;;;;;0.47;0.47;;;;;;;;;;4981939;28;20026;-81
2022/03/09 03:57:34;;;;;;;1.05;1.02;;;;;;;;;;4984842;28;20114;-80
2022/03/09 04:00:00;;;;;;;1.38;0.55;;;;;;;;;;4993716;28;20061;-79
2022/03/09 04:02:30;;;;;;;0.60;0.52;;;;;;;;;;4993929;28;20072;-78
2022/03/09 04:04:56;;;;;;;0.00;0.00;;;;;;;;;;4985661;28;20378;-80
2022/03/09 04:07:21;;;;;;;0.03;0.03;;;;;;;;;;4983749;28;20026;-80
2022/03/09 04:09:46;;;;;;;0.20;0.20;;;;;;;;;;4992924;28;20037;-80
2022/03/09 04:12:14;;;;;;;0.28;0.28;;;;;;;;;;4996176;28;20038;-80
2022/03/09 04:14:40;;;;;;;0.10;0.10;;;;;;;;;;5008831;28;20031;-81
2022/03/09 04:17:05;;;;;;;0.43;0.43;;;;;;;;;;4989355;28;20030;-78
2022/03/09 04:19:30;;;;;;;0.20;0.20;;;;;;;;;;4987677;28;20081;-81
2022/03/09 04:21:58;;;;;;;0.43;0.43;;;;;;;;;;4986971;28;20046;-79
2022/03/09 04:24:26;;;;;;;0.10;0.10;;;;;;;;;;4978569;28;20040;-81
2022/03/09 04:26:54;;;;;;;0.88;0.80;;;;;;;;;;4991731;28;20026;-81
2022/03/09 04:29:19;;;;;;;1.17;1.08;;;;;;;;;;5011717;28;20373;-81
2022/03/09 04:31:45;;;;;;;0.30;0.30;;;;;;;;;;4988879;28;20041;-80
2022/03/09 04:34:10;;;;;;;0.63;0.63;;;;;;;;;;4994993;28;20503;-80
2022/03/09 04:36:38;;;;;;;0.40;0.40;;;;;;;;;;4990704;28;20452;-79
2022/03/09 04:39:04;;;;;;;0.15;0.10;;;;;;;;;;4987653;28;20034;-80
2022/03/09 04:41:34;;;;;;;0.52;0.52;;;;;;;;;;4988786;28;20031;-81
2022/03/09 04:43:59;;;;;;;0.68;0.68;;;;;;;;;;4976023;28;20081;-78
2022/03/09 04:46:27;;;;;;;1.40;1.30;;;;;;;;;;4987205;28;20362;-80
2022/03/09 04:48:55;;;;;;;0.52;0.52;;;;;;;;;;4976561;28;20027;-82
2022/03/09 04:51:22;;;;;;;0.65;0.65;;;;;;;;;;4994919;28;20046;-81
2022/03/09 04:53:50;;;;;;;0.28;0.28;;;;;;;;;;4985207;28;20030;-82
2022/03/09 04:56:15;;;;;;;0.98;0.75;;;;;;;;;;4996672;28;20030;-81
2022/03/09 04:58:41;;;;;;;0.68;0.68;;;;;;;;;;4991552;28;20019;-81
2022/03/09 05:01:06;;;;;;;0.10;0.10;;;;;;;;;;4989642;28;20362;-81
2022/03/09 05:03:34;;;;;;;0.40;0.40;;;;;;;;;;4981241;28;20043;-81
2022/03/09 05:06:00;;;;;;;0.75;0.75;;;;;;;;;;4982273;28;20042;-82
2022/03/09 05:08:26;;;;;;;0.75;0.75;;;;;;;;;;4978475;28;20066;-80
2022/03/09 05:10:51;;;;;;;0.45;0.45;;;;;;;;;;4990745;28;20101;-82
2022/03/09 05:13:16;;;;;;;0.35;0.35;;;;;;;;;;4976424;28;20154;-80
2022/03/09 05:15:42;;;;;;;0.50;0.50;;;;;;;;;;4987452;28;20019;-79
2022/03/09 05:18:07;;;;;;;0.57;0.57;;;;;;;;;;4987076;28;20026;-81
2022/03/09 05:20:34;;;;;;;0.00;0.00;;;;;;;;;;4992117;28;20038;-81
2022/03/09 05:23:00;;;;;;;0.60;0.60;;;;;;;;;;4992111;28;20022;-80
2022/03/09 05:25:30;;;;;;;2.28;1.27;;;;;;;;;;4990115;28;20140;-81
2022/03/09 05:27:55;;;;;;;0.08;0.08;;;;;;;;;;4995435;28;20030;-81
2022/03/09 05:30:20;;;;;;;0.10;0.10;;;;;;;;;;4995115;28;20434;-78
2022/03/09 05:32:46;;;;;;;0.60;0.50;;;;;;;;;;4990154;28;20065;-81
2022/03/09 05:35:11;;;;;;;0.93;0.90;;;;;;;;;;4984641;28;20026;-80
2022/03/09 05:37:37;;;;;;;0.30;0.30;;;;;;;;;;4986056;28;20100;-81
2022/03/09 05:40:03;;;;;;;1.27;0.77;;;;;;;;;;4979238;28;20042;-81
2022/03/09 05:42:28;;;;;;;1.00;0.65;;;;;;;;;;4989943;28;20437;-82
2022/03/09 05:44:56;;;;;;;0.90;0.90;;;;;;;;;;4980687;28;20031;-81
2022/03/09 05:47:23;;;;;;;0.08;0.08;;;;;;;;;;4987982;28;20023;-79
2022/03/09 05:49:49;;;;;;;0.00;0.00;;;;;;;;;;4975576;28;20058;-79
2022/03/09 05:52:14;;;;;;;1.05;0.90;;;;;;;;;;4978358;28;20077;-81
2022/03/09 05:54:45;;;;;;;0.00;0.00;;;;;;;;;;4979812;28;20022;-77
2022/03/09 05:57:11;;;;;;;0.10;0.10;;;;;;;;;;4981869;28;20353;-80
2022/03/09 05:59:36;;;;;;;0.60;0.60;;;;;;;;;;4985228;28;20114;-80
2022/03/09 06:02:01;;;;;;;0.10;0.10;;;;;;;;;;4988425;28;20327;-79
2022/03/09 06:04:29;;;;;;;0.20;0.20;;;;;;;;;;4981801;28;20041;-81
2022/03/09 06:06:56;;;;;;;0.60;0.60;;;;;;;;;;4988490;28;20041;-79
2022/03/09 06:09:24;;;;;;;0.22;0.20;;;;;;;;;;4999928;28;20101;-80
2022/03/09 06:11:49;;;;;;;0.98;0.95;;;;;;;;;;4993495;28;20030;-79
2022/03/09 06:14:14;;;;;;;0.15;0.15;;;;;;;;;;4979597;28;20169;-80
2022/03/09 06:16:40;;;;;;;1.65;1.55;;;;;;;;;;4983062;28;20490;-79
2022/03/09 06:19:07;;;;;;;0.00;0.00;;;;;;;;;;4975095;28;20030;-79
2022/03/09 06:21:33;;;;;;;1.30;0.10;;;;;;;;;;4984582;28;20023;-80
2022/03/09 06:24:02;;;;;;;0.00;0.00;;;;;;;;;;4975397;28;20528;-80
2022/03/09 06:26:32;;;;;;;2.30;0.52;;;;;;;;;;4985553;28;20534;-79
2022/03/09 06:28:58;;;;;;;0.10;0.10;;;;;;;;;;4980660;28;20035;-80
2022/03/09 06:31:23;;;;;;;0.00;0.00;;;;;;;;;;4979691;28;20093;-79
2022/03/09 06:33:49;;;;;;;0.08;0.08;;;;;;;;;;4999636;28;20042;-79
2022/03/09 06:36:15;;;;;;;0.73;0.73;;;;;;;;;;4994555;28;20034;-78
2022/03/09 06:38:41;;;;;;;0.10;0.10;;;;;;;;;;4992058;28;20026;-79
2022/03/09 06:41:06;;;;;;;0.60;0.60;;;;;;;;;;4993399;28;20110;-78
2022/03/09 06:43:32;;;;;;;0.40;0.35;;;;;;;;;;4979483;28;20053;-81
2022/03/09 06:45:57;;;;;;;1.13;0.68;;;;;;;;;;4981366;28;20030;-81
2022/03/09 06:48:22;;;;;;;0.90;0.90;;;;;;;;;;4979293;28;20038;-80
2022/03/09 06:50:50;;;;;;;0.47;0.47;;;;;;;;;;4981474;28;20026;-78
2022/03/09 06:53:18;;;;;;;0.13;0.13;;;;;;;;;;4979180;28;20031;-80
2022/03/09 06:55:43;;;;;;;0.63;0.60;;;;;;;;;;4983312;28;20057;-78
2022/03/09 06:58:11;;;;;;;0.57;0.57;;;;;;;;;;4992734;28;20065;-81
2022/03/09 07:00:36;;;;;;;0.95;0.85;;;;;;;;;;4984529;28;20092;-81
2022/03/09 07:03:05;;;;;;;0.40;0.40;;;;;;;;;;4983205;28;20023;-80
2022/03/09 07:05:32;;;;;;;1.85;1.45;;;;;;;;;;4991063;28;20025;-81
2022/03/09 07:07:59;;;;;;;0.65;0.65;;;;;;;;;;4986940;28;20111;-81
2022/03/09 07:10:26;;;;;;;1.08;0.28;;;;;;;;;;4980606;28;20110;-81
2022/03/09 07:12:52;;;;;;;0.20;0.20;;;;;;;;;;4990224;28;20038;-81
2022/03/09 07:15:17;;;;;;;0.47;0.47;;;;;;;;;;4978199;28;20105;-80
2022/03/09 07:17:47;;;;;;;0.20;0.20;;;;;;;;;;4993159;28;20041;-81
2022/03/09 07:20:13;;;;;;;0.85;0.45;;;;;;;;;;4997692;28;20022;-80
2022/03/09 07:22:39;;;;;;;1.13;0.63;;;;;;;;;;4984597;28;20399;-82
2022/03/09 07:25:05;;;;;;;1.00;0.63;;;;;;;;;;4990487;28;20026;-81
2022/03/09 07:27:30;;;;;;;0.30;0.30;;;;;;;;;;5004687;28;20026;-81
2022/03/09 07:29:56;;;;;;;0.60;0.60;;;;;;;;;;4978314;28;20102;-81
2022/03/09 07:32:21;;;;;;;1.45;1.30;;;;;;;;;;4982106;28;20421;-81
2022/03/09 07:34:46;;;;;;;0.22;0.22;;;;;;;;;;4978525;28;20329;-81
2022/03/09 07:37:12;;;;;;;1.58;1.05;;;;;;;;;;4981811;28;20026;-81
2022/03/09 07:39:37;;;;;;;3.63;1.50;;;;;;;;;;4988153;28;20039;-80
2022/03/09 07:42:03;;;;;;;0.08;0.08;;;;;;;;;;4985937;28;20041;-80
2022/03/09 07:44:31;;;;;;;0.73;0.52;;;;;;;;;;5004677;28;20023;-81
2022/03/09 07:46:56;;;;;;;0.75;0.68;;;;;;;;;;4984865;28;20018;-83
2022/03/09 07:49:22;;;;;;;0.22;0.22;;;;;;;;;;4998816;28;20507;-81
2022/03/09 07:51:49;;;;;;;3.05;1.35;;;;;;;;;;4988890;28;20034;-79
2022/03/09 07:54:14;;;;;;;0.22;0.22;;;;;;;;;;4989448;28;20108;-80
2022/03/09 07:56:40;;;;;;;1.02;0.93;;;;;;;;;;4995924;28;20434;-81
2022/03/09 07:59:06;;;;;;;0.45;0.43;;;;;;;;;;4992816;28;20018;-79
2022/03/09 08:01:34;;;;;;;4.38;1.80;;;;;;;;;;4985073;28;20465;-78
2022/03/09 08:04:03;;;;;;;0.30;0.30;;;;;;;;;;4987120;28;20030;-78
2022/03/09 08:06:32;;;;;;;0.52;0.52;;;;;;;;;;4992209;28;20026;-78
2022/03/09 08:09:00;;;;;;;4.13;2.50;;;;;;;;;;4980213;28;20180;-78
2022/03/09 08:11:26;;;;;;;0.70;0.47;;;;;;;;;;4998047;28;20426;-82
2022/03/09 08:13:54;;;;;;;2.97;1.13;;;;;;;;;;4998225;28;20050;-85
2022/03/09 08:16:26;;;;;;;0.43;0.43;;;;;;;;;;4988534;28;20026;-86
2022/03/09 08:18:52;;;;;;;0.35;0.32;;;;;;;;;;4979007;28;20090;-82
2022/03/09 08:21:17;;;;;;;1.02;0.88;;;;;;;;;;4993179;28;20109;-81
2022/03/09 08:23:45;;;;;;;3.22;1.17;;;;;;;;;;5006305;28;20078;-82
2022/03/09 08:26:11;;;;;;;1.15;1.13;;;;;;;;;;4987252;28;20496;-81
2022/03/09 08:28:36;;;;;;;1.98;1.55;;;;;;;;;;4988033;28;20026;-80
2022/03/09 08:31:02;;;;;;;1.65;1.00;;;;;;;;;;4987631;28;20018;-81
2022/03/09 08:33:29;;;;;;;0.93;0.93;;;;;;;;;;4991886;28;20044;-83
2022/03/09 08:35:58;;;;;;;2.25;1.48;;;;;;;;;;4992183;28;20084;-82
2022/03/09 08:38:23;;;;;;;0.73;0.70;;;;;;;;;;4988221;28;20596;-83
2022/03/09 08:40:49;;;;;;;0.57;0.57;;;;;;;;;;4997547;28;20022;-81
2022/03/09 08:43:14;;;;;;;0.82;0.82;;;;;;;;;;4981347;28;20454;-82
2022/03/09 08:45:45;;;;;;;1.00;1.00;;;;;;;;;;4988016;28;20389;-84
2022/03/09 08:48:12;;;;;;;1.27;1.08;;;;;;;;;;4976892;28;20110;-81
2022/03/09 08:50:38;;;;;;;0.88;0.85;;;;;;;;;;4991824;28;20350;-84
2022/03/09 08:53:03;;;;;;;2.90;1.35;;;;;;;;;;4985801;28;20038;-83
2022/03/09 08:55:34;;;;;;;2.28;0.68;;;;;;;;;;4987745;28;20033;-81
2022/03/09 08:58:00;;;;;;;1.42;0.90;;;;;;;;;;4982794;28;20038;-84
2022/03/09 09:00:25;;;;;;;1.88;1.00;;;;;;;;;;4990783;28;20075;-87
2022/03/09 09:02:53;;;;;;;1.13;1.02;;;;;;;;;;4978940;28;20102;-85
2022/03/09 09:05:19;;;;;;;2.40;0.95;;;;;;;;;;4981777;28;20675;-86
2022/03/09 09:07:47;;;;;;;0.45;0.45;;;;;;;;;;4987744;28;20101;-83
2022/03/09 09:10:15;;;;;;;1.02;0.70;;;;;;;;;;4981878;28;20030;-83
2022/03/09 09:12:44;;;;;;;4.70;1.38;;;;;;;;;;4981800;28;20038;-81
2022/03/09 09:15:12;;;;;;;2.35;2.13;;;;;;;;;;4976885;28;20034;-84
2022/03/09 09:17:37;;;;;;;0.85;0.47;;;;;;;;;;4981131;28;20038;-83
2022/03/09 09:20:03;;;;;;;0.82;0.82;;;;;;;;;;4976713;28;20362;-81
2022/03/09 09:22:28;;;;;;;1.55;1.25;;;;;;;;;;4981874;28;20078;-82
2022/03/09 09:24:54;;;;;;;0.85;0.85;;;;;;;;;;4994033;28;20432;-81
2022/03/09 09:27:19;;;;;;;1.92;1.60;;;;;;;;;;4995126;28;20471;-85
2022/03/09 09:29:47;;;;;;;1.05;0.85;;;;;;;;;;4994927;28;20034;-85
2022/03/09 09:32:16;;;;;;;2.08;1.50;;;;;;;;;;4988826;28;20059;-81
2022/03/09 09:34:43;;;;;;;1.45;0.88;;;;;;;;;;4994905;28;20109;-83
2022/03/09 09:37:09;;;;;;;1.80;1.35;;;;;;;;;;4994777;28;20405;-84
2022/03/09 09:39:34;;;;;;;2.00;0.77;;;;;;;;;;4994820;28;20018;-83
2022/03/09 09:42:05;;;;;;;2.28;1.83;;;;;;;;;;4982987;28;20023;-83
2022/03/09 09:44:31;;;;;;;3.08;1.67;;;;;;;;;;4987426;28;20035;-83
2022/03/09 09:46:57;;;;;;;1.60;1.42;;;;;;;;;;4988249;28;20461;-84
2022/03/09 09:49:25;;;;;;;10.07;1.40;;;;;;;;;;4982930;28;20031;-83
2022/03/09 09:51:53;;;;;;;1.58;1.48;;;;;;;;;;4976115;28;20077;-83
2022/03/09 09:54:19;;;;;;;3.33;1.60;;;;;;;;;;4975958;28;20081;-84
2022/03/09 09:56:44;;;;;;;0.57;0.55;;;;;;;;;;4981500;28;20031;-85
2022/03/09 09:59:10;;;;;;;1.23;1.13;;;;;;;;;;4974960;28;20354;-83
2022/03/09 10:01:36;;;;;;;1.45;1.00;;;;;;;;;;4976118;28;20450;-84
2022/03/09 10:04:02;;;;;;;0.98;0.93;;;;;;;;;;4981552;28;20096;-84
2022/03/09 10:06:30;;;;;;;2.45;1.65;;;;;;;;;;4992398;28;20037;-86
2022/03/09 10:09:07;;;;;;;1.17;0.82;;;;;;;;;;5000055;28;20081;-84
2022/03/09 10:11:51;;;;;;;1.50;1.05;;;;;;;;;;4999540;28;20052;-83
2022/03/09 10:14:39;;;;;;;1.83;1.65;;;;;;;;;;4979199;28;20031;-82
2022/03/09 10:17:10;;;;;;;1.58;1.33;;;;;;;;;;4986208;28;20038;-85
2022/03/09 10:19:38;;;;;;;1.30;1.08;;;;;;;;;;4980289;28;20030;-82
2022/03/09 10:22:41;;;;;;;1.17;1.08;;;;;;;;;;4996612;28;20430;-82
2022/03/09 10:25:11;;;;;;;0.68;0.68;;;;;;;;;;4983390;28;20046;-85
2022/03/09 10:27:40;;;;;;;0.30;0.30;;;;;;;;;;4987947;28;20030;-84
2022/03/09 10:30:14;;;;;;;1.15;1.15;;;;;;;;;;4987157;28;20098;-80
2022/03/09 10:32:48;;;;;;;2.65;1.77;;;;;;;;;;4988335;28;20031;-85
2022/03/09 10:35:17;;;;;;;1.65;1.55;;;;;;;;;;4996077;28;20033;-83
2022/03/09 10:37:47;;;;;;;3.53;1.00;;;;;;;;;;4997502;28;20030;-83
2022/03/09 10:40:18;;;;;;;1.23;1.13;;;;;;;;;;4984860;28;20375;-84
2022/03/09 10:42:46;;;;;;;1.23;1.10;;;;;;;;;;4977089;28;20026;-83
2022/03/09 10:45:13;;;;;;;2.30;1.52;;;;;;;;;;4981512;28;20034;-83
2022/03/09 10:47:48;;;;;;;1.95;1.05;;;;;;;;;;4987405;28;20109;-84
2022/03/09 10:50:30;;;;;;;4.07;1.17;;;;;;;;;;4975629;28;20125;-84
2022/03/09 10:52:55;;;;;;;;;;;;;;;;;;4979560;28;20031;-83
2022/03/09 10:55:38;;;;;;;1.42;1.33;;;;;;;;;;4979628;28;20001;-84
2022/03/09 10:58:21;;;;;;;2.00;1.52;;;;;;;;;;4982022;28;20110;-84
2022/03/09 11:00:47;;;;;;;2.00;1.30;;;;;;;;;;4992966;28;20042;-86
2022/03/09 11:03:17;;;;;;;1.80;1.70;;;;;;;;;;4980976;28;20023;-85
2022/03/09 11:05:59;;;;;;;1.20;1.10;;;;;;;;;;4982905;28;20438;-86
2022/03/09 11:08:29;;;;;;;1.90;1.05;;;;;;;;;;4994255;28;20062;-84
2022/03/09 11:10:59;;;;;;;5.05;1.70;;;;;;;;;;4990137;28;20043;-84
2022/03/09 11:13:26;;;;;;;1.52;0.65;;;;;;;;;;4981913;28;20041;-85
2022/03/09 11:15:54;;;;;;;1.75;1.15;;;;;;;;;;4991363;28;20041;-84
2022/03/09 11:18:28;;;;;;;2.08;1.42;;;;;;;;;;5001385;28;20492;-85
2022/03/09 11:21:02;;;;;;;1.85;1.33;;;;;;;;;;4983971;28;20035;-85
2022/03/09 11:23:29;;;;;;;1.85;1.27;;;;;;;;;;4983456;28;20026;-83
2022/03/09 11:26:15;;;;;;;2.25;1.98;;;;;;;;;;4979735;28;20118;-83
2022/03/09 11:28:42;;;;;;;3.78;2.42;;;;;;;;;;4985556;28;20027;-86
2022/03/09 11:31:15;;;;;;;2.40;1.60;;;;;;;;;;4987857;28;20030;-86
2022/03/09 11:33:49;;;;;;;1.35;0.68;;;;;;;;;;4996988;28;20390;-85
2022/03/09 11:36:21;;;;;;;1.02;0.98;;;;;;;;;;4981960;28;20090;-85
2022/03/09 11:38:48;;;;;;;1.08;0.98;;;;;;;;;;4977574;28;20045;-87
2022/03/09 11:41:31;;;;;;;1.73;1.60;;;;;;;;;;4987690;28;20038;-83
2022/03/09 11:44:29;;;;;;;0.90;0.82;;;;;;;;;;4981377;28;20097;-86
2022/03/09 11:47:01;;;;;;;1.45;0.85;;;;;;;;;;4978714;28;20034;-87
2022/03/09 11:49:53;;;;;;;2.35;1.25;;;;;;;;;;4988885;28;20504;-86
2022/03/09 11:52:27;;;;;;;1.30;1.13;;;;;;;;;;4992019;28;20038;-86
2022/03/09 11:54:55;;;;;;;2.47;1.52;;;;;;;;;;4977792;28;20140;-86
2022/03/09 11:57:23;;;;;;;4.22;2.08;;;;;;;;;;4992131;28;20338;-84
2022/03/09 12:00:13;;;;;;;4.32;1.35;;;;;;;;;;4996905;28;20022;-87
2022/03/09 12:02:54;;;;;;;1.52;1.00;;;;;;;;;;4997175;28;20115;-86
2022/03/09 12:05:29;;;;;;;1.83;1.38;;;;;;;;;;4989916;28;20043;-88
2022/03/09 12:07:58;;;;;;;2.08;1.40;;;;;;;;;;4991497;28;20022;-82
2022/03/09 12:10:45;;;;;;;0.75;0.75;;;;;;;;;;4996495;28;20022;-87
2022/03/09 12:13:19;;;;;;;1.15;0.98;;;;;;;;;;4986689;28;20023;-85
2022/03/09 12:16:04;;;;;;;1.52;1.17;;;;;;;;;;4983842;28;20525;-85
2022/03/09 12:18:43;;;;;;;1.35;1.25;;;;;;;;;;4996574;28;20080;-88
2022/03/09 12:21:14;;;;;;;1.35;1.17;;;;;;;;;;4996885;28;20616;-86
2022/03/09 12:24:03;;;;;;;2.93;1.87;;;;;;;;;;4981953;28;20046;-86
2022/03/09 12:26:52;;;;;;;1.08;0.85;;;;;;;;;;4978099;28;20061;-86
2022/03/09 12:29:18;;;;;;;1.48;1.27;;;;;;;;;;4990221;28;20432;-86
2022/03/09 12:31:44;;;;;;;1.90;1.13;;;;;;;;;;4991121;28;20065;-86
2022/03/09 12:34:10;;;;;;;4.50;1.75;;;;;;;;;;4990481;28;20283;-84
2022/03/09 12:36:35;;;;;;;1.73;1.33;;;;;;;;;;4998625;28;20109;-85
2022/03/09 12:39:05;;;;;;;1.77;1.60;;;;;;;;;;4990224;28;20457;-86
2022/03/09 12:41:39;;;;;;;2.72;1.23;;;;;;;;;;4995802;28;20029;-85
2022/03/09 12:44:15;;;;;;;1.63;1.20;;;;;;;;;;4986295;28;20030;-85
2022/03/09 12:46:44;;;;;;;5.32;1.88;;;;;;;;;;4985339;28;20052;-81
2022/03/09 12:49:20;;;;;;;1.70;1.17;;;;;;;;;;4979673;28;20409;-86
2022/03/09 12:51:54;;;;;;;3.78;2.30;;;;;;;;;;4996845;28;20026;-86
2022/03/09 12:54:34;;;;;;;1.92;1.25;;;;;;;;;;4995161;28;20085;-87
2022/03/09 12:57:14;;;;;;;2.42;1.88;;;;;;;;;;4993572;28;20030;-85
2022/03/09 13:00:02;;;;;;;2.30;1.58;;;;;;;;;;4977453;28;20038;-86
2022/03/09 13:02:48;;;;;;;1.55;1.42;;;;;;;;;;4975240;28;20038;-84
2022/03/09 13:05:20;;;;;;;1.75;0.95;;;;;;;;;;4982768;28;20061;-83
2022/03/09 13:08:07;;;;;;;2.55;0.82;;;;;;;;;;4978434;28;20046;-85
2022/03/09 13:10:40;;;;;;;2.28;1.23;;;;;;;;;;4981179;28;20364;-84
2022/03/09 13:13:05;;;;;;;1.73;1.27;;;;;;;;;;4995078;28;20476;-83
2022/03/09 13:15:43;;;;;;;0.65;0.65;;;;;;;;;;4994427;28;20026;-83
2022/03/09 13:18:13;;;;;;;1.88;1.10;;;;;;;;;;4995753;28;20014;-84
2022/03/09 13:20:42;;;;;;;3.28;1.55;;;;;;;;;;4993846;28;20027;-82
2022/03/09 13:23:32;;;;;;;0.40;0.40;;;;;;;;;;4981603;28;20027;-85
2022/03/09 13:26:18;;;;;;;2.92;1.65;;;;;;;;;;4979526;28;20177;-86
2022/03/09 13:28:48;;;;;;;1.40;1.30;;;;;;;;;;4976347;28;20173;-85
2022/03/09 13:31:16;;;;;;;1.75;1.38;;;;;;;;;;4986893;28;20053;-84
2022/03/09 13:33:46;;;;;;;1.52;1.42;;;;;;;;;;4978726;28;20038;-84
2022/03/09 13:36:17;;;;;;;1.80;1.45;;;;;;;;;;5013362;28;20120;-81
2022/03/09 13:38:57;;;;;;;12.65;1.33;;;;;;;;;;4991779;28;20029;-84
2022/03/09 13:41:24;;;;;;;1.45;1.25;;;;;;;;;;4996073;28;20457;-85
2022/03/09 13:43:54;;;;;;;0.93;0.70;;;;;;;;;;4995657;28;20031;-81
2022/03/09 13:46:24;;;;;;;1.50;1.40;;;;;;;;;;4990608;28;20041;-83
2022/03/09 13:49:13;;;;;;;1.10;0.95;;;;;;;;;;4979409;28;20038;-86
2022/03/09 13:51:39;;;;;;;1.08;1.08;;;;;;;;;;4994539;28;20034;-84
2022/03/09 13:54:10;;;;;;;5.97;0.70;;;;;;;;;;4981259;28;20030;-85
2022/03/09 13:56:36;;;;;;;1.35;1.27;;;;;;;;;;4981455;28;20035;-85
2022/03/09 13:59:07;;;;;;;1.80;1.70;;;;;;;;;;4976954;28;20577;-85
2022/03/09 14:01:33;;;;;;;2.40;1.25;;;;;;;;;;4993948;28;20026;-83
2022/03/09 14:04:06;;;;;;;0.60;0.60;;;;;;;;;;4976600;28;20030;-85
2022/03/09 14:06:33;;;;;;;2.30;1.50;;;;;;;;;;4988013;28;20053;-85
2022/03/09 14:09:09;;;;;;;1.02;0.93;;;;;;;;;;4975336;28;20085;-85
2022/03/09 14:11:37;;;;;;;1.88;1.48;;;;;;;;;;4992284;28;20759;-86
2022/03/09 14:14:06;;;;;;;0.98;0.90;;;;;;;;;;4981027;28;20030;-82
2022/03/09 14:16:34;;;;;;;1.55;1.42;;;;;;;;;;4977172;28;20027;-85
2022/03/09 14:19:00;;;;;;;1.42;1.33;;;;;;;;;;4980419;28;20037;-84
2022/03/09 14:21:31;;;;;;;1.42;1.33;;;;;;;;;;4975771;28;20094;-85
2022/03/09 14:24:01;;;;;;;1.10;1.00;;;;;;;;;;4985294;28;20040;-85
2022/03/09 14:26:28;;;;;;;2.38;0.63;;;;;;;;;;4994532;28;20044;-85
2022/03/09 14:28:54;;;;;;;1.42;1.20;;;;;;;;;;4993854;28;20030;-84
2022/03/09 14:31:23;;;;;;;1.15;1.08;;;;;;;;;;4992304;28;20126;-85
2022/03/09 14:33:49;;;;;;;1.42;1.33;;;;;;;;;;4978944;28;20030;-83
2022/03/09 14:36:15;;;;;;;1.60;1.02;;;;;;;;;;4986117;28;20037;-80
2022/03/09 14:38:41;;;;;;;1.52;1.33;;;;;;;;;;4991924;28;20038;-79
2022/03/09 14:41:12;;;;;;;1.83;1.73;;;;;;;;;;4990728;28;20038;-86
2022/03/09 14:43:41;;;;;;;1.30;1.23;;;;;;;;;;4987471;28;20140;-83
2022/03/09 14:46:12;;;;;;;0.88;0.82;;;;;;;;;;4994038;28;20038;-82
2022/03/09 14:48:37;;;;;;;1.70;1.60;;;;;;;;;;4996310;28;20030;-82
2022/03/09 14:51:04;;;;;;;1.40;1.27;;;;;;;;;;4988369;28;20038;-82
2022/03/09 14:53:35;;;;;;;1.23;1.05;;;;;;;;;;5003839;28;20027;-82
2022/03/09 14:56:09;;;;;;;1.42;0.98;;;;;;;;;;4991459;28;20026;-83